sensor_id;sensor_type;location;lat;lon;timestamp;P1;durP1;ratioP1;P2;durP2;ratioP2
58260;SDS011;44058;52.898;6.502;2023-09-18T00:01:37;16.48;;;14.95;;
58260;SDS011;44058;52.898;6.502;2023-09-18T00:04:04;18.25;;;16.02;;
58260;SDS011;44058;52.898;6.502;2023-09-18T00:06:32;16.70;;;14.90;;
58260;SDS011;44058;52.898;6.502;2023-09-18T00:08:58;15.23;;;13.52;;
58260;SDS011;44058;52.898;6.502;2023-09-18T00:11:24;14.02;;;12.48;;
58260;SDS011;44058;52.898;6.502;2023-09-18T00:13:51;14.45;;;13.13;;
58260;SDS011;44058;52.898;6.502;2023-09-18T00:16:17;18.25;;;15.48;;
58260;SDS011;44058;52.898;6.502;2023-09-18T00:18:43;17.38;;;15.77;;
58260;SDS011;44058;52.898;6.502;2023-09-18T00:21:10;17.85;;;16.15;;
58260;SDS011;44058;52.898;6.502;2023-09-18T00:23:36;17.65;;;15.93;;
58260;SDS011;44058;52.898;6.502;2023-09-18T00:26:22;18.65;;;16.75;;
58260;SDS011;44058;52.898;6.502;2023-09-18T00:28:49;20.88;;;18.77;;
58260;SDS011;44058;52.898;6.502;2023-09-18T00:31:15;22.75;;;20.33;;
58260;SDS011;44058;52.898;6.502;2023-09-18T00:33:41;23.83;;;21.38;;
58260;SDS011;44058;52.898;6.502;2023-09-18T00:36:07;27.17;;;22.83;;
58260;SDS011;44058;52.898;6.502;2023-09-18T00:38:33;28.23;;;22.10;;
58260;SDS011;44058;52.898;6.502;2023-09-18T00:41:00;25.15;;;22.23;;
58260;SDS011;44058;52.898;6.502;2023-09-18T00:43:27;22.23;;;19.92;;
58260;SDS011;44058;52.898;6.502;2023-09-18T00:45:53;22.13;;;19.50;;
58260;SDS011;44058;52.898;6.502;2023-09-18T00:48:39;20.58;;;18.58;;
58260;SDS011;44058;52.898;6.502;2023-09-18T00:51:05;22.35;;;20.02;;
58260;SDS011;44058;52.898;6.502;2023-09-18T00:53:32;22.08;;;19.63;;
58260;SDS011;44058;52.898;6.502;2023-09-18T00:55:58;21.85;;;19.55;;
58260;SDS011;44058;52.898;6.502;2023-09-18T00:58:26;21.23;;;19.13;;
58260;SDS011;44058;52.898;6.502;2023-09-18T01:00:52;20.27;;;17.98;;
58260;SDS011;44058;52.898;6.502;2023-09-18T01:03:19;19.67;;;17.67;;
58260;SDS011;44058;52.898;6.502;2023-09-18T01:05:45;21.52;;;18.25;;
58260;SDS011;44058;52.898;6.502;2023-09-18T01:08:11;20.77;;;18.77;;
58260;SDS011;44058;52.898;6.502;2023-09-18T01:10:44;19.83;;;17.73;;
58260;SDS011;44058;52.898;6.502;2023-09-18T01:13:14;19.95;;;17.95;;
58260;SDS011;44058;52.898;6.502;2023-09-18T01:15:48;21.30;;;19.20;;
58260;SDS011;44058;52.898;6.502;2023-09-18T01:18:16;20.35;;;18.27;;
58260;SDS011;44058;52.898;6.502;2023-09-18T01:20:43;20.30;;;18.35;;
58260;SDS011;44058;52.898;6.502;2023-09-18T01:23:10;20.95;;;18.90;;
58260;SDS011;44058;52.898;6.502;2023-09-18T01:25:36;20.30;;;18.40;;
58260;SDS011;44058;52.898;6.502;2023-09-18T01:28:03;20.70;;;18.50;;
58260;SDS011;44058;52.898;6.502;2023-09-18T01:30:29;19.10;;;17.13;;
58260;SDS011;44058;52.898;6.502;2023-09-18T01:32:56;19.83;;;17.73;;
58260;SDS011;44058;52.898;6.502;2023-09-18T01:35:23;18.88;;;16.88;;
58260;SDS011;44058;52.898;6.502;2023-09-18T01:37:55;18.98;;;17.02;;
58260;SDS011;44058;52.898;6.502;2023-09-18T01:40:22;21.30;;;19.02;;
58260;SDS011;44058;52.898;6.502;2023-09-18T01:42:49;20.05;;;17.98;;
58260;SDS011;44058;52.898;6.502;2023-09-18T01:45:15;20.00;;;17.90;;
58260;SDS011;44058;52.898;6.502;2023-09-18T01:47:41;20.40;;;18.15;;
58260;SDS011;44058;52.898;6.502;2023-09-18T01:50:08;19.85;;;17.85;;
58260;SDS011;44058;52.898;6.502;2023-09-18T01:52:34;19.50;;;17.48;;
58260;SDS011;44058;52.898;6.502;2023-09-18T01:55:01;19.90;;;18.02;;
58260;SDS011;44058;52.898;6.502;2023-09-18T01:57:29;19.08;;;17.20;;
58260;SDS011;44058;52.898;6.502;2023-09-18T01:59:55;19.77;;;17.70;;
58260;SDS011;44058;52.898;6.502;2023-09-18T02:02:21;20.05;;;18.08;;
58260;SDS011;44058;52.898;6.502;2023-09-18T02:04:48;20.42;;;18.40;;
58260;SDS011;44058;52.898;6.502;2023-09-18T02:07:14;22.02;;;19.83;;
58260;SDS011;44058;52.898;6.502;2023-09-18T02:09:40;21.80;;;19.50;;
58260;SDS011;44058;52.898;6.502;2023-09-18T02:12:06;22.90;;;20.48;;
58260;SDS011;44058;52.898;6.502;2023-09-18T02:14:32;21.73;;;19.42;;
58260;SDS011;44058;52.898;6.502;2023-09-18T02:16:59;21.60;;;19.50;;
58260;SDS011;44058;52.898;6.502;2023-09-18T02:19:25;20.60;;;18.60;;
58260;SDS011;44058;52.898;6.502;2023-09-18T02:21:51;20.13;;;18.23;;
58260;SDS011;44058;52.898;6.502;2023-09-18T02:24:17;22.67;;;20.45;;
58260;SDS011;44058;52.898;6.502;2023-09-18T02:26:44;22.17;;;19.92;;
58260;SDS011;44058;52.898;6.502;2023-09-18T02:29:10;23.35;;;19.13;;
58260;SDS011;44058;52.898;6.502;2023-09-18T02:31:58;22.73;;;20.42;;
58260;SDS011;44058;52.898;6.502;2023-09-18T02:34:24;21.15;;;19.08;;
58260;SDS011;44058;52.898;6.502;2023-09-18T02:36:50;20.35;;;18.17;;
58260;SDS011;44058;52.898;6.502;2023-09-18T02:39:17;21.98;;;19.70;;
58260;SDS011;44058;52.898;6.502;2023-09-18T02:41:43;21.05;;;18.85;;
58260;SDS011;44058;52.898;6.502;2023-09-18T02:44:10;20.40;;;18.35;;
58260;SDS011;44058;52.898;6.502;2023-09-18T02:46:37;19.98;;;17.98;;
58260;SDS011;44058;52.898;6.502;2023-09-18T02:49:03;20.50;;;18.35;;
58260;SDS011;44058;52.898;6.502;2023-09-18T02:51:29;19.48;;;17.67;;
58260;SDS011;44058;52.898;6.502;2023-09-18T02:53:57;18.80;;;17.08;;
58260;SDS011;44058;52.898;6.502;2023-09-18T02:56:23;20.65;;;18.45;;
58260;SDS011;44058;52.898;6.502;2023-09-18T02:58:49;20.02;;;17.70;;
58260;SDS011;44058;52.898;6.502;2023-09-18T03:01:15;19.98;;;17.95;;
58260;SDS011;44058;52.898;6.502;2023-09-18T03:03:41;19.20;;;16.45;;
58260;SDS011;44058;52.898;6.502;2023-09-18T03:06:27;19.55;;;17.48;;
58260;SDS011;44058;52.898;6.502;2023-09-18T03:08:53;18.63;;;16.77;;
58260;SDS011;44058;52.898;6.502;2023-09-18T03:11:19;18.67;;;16.55;;
58260;SDS011;44058;52.898;6.502;2023-09-18T03:13:46;17.52;;;15.77;;
58260;SDS011;44058;52.898;6.502;2023-09-18T03:16:12;16.40;;;14.70;;
58260;SDS011;44058;52.898;6.502;2023-09-18T03:18:38;17.15;;;15.32;;
58260;SDS011;44058;52.898;6.502;2023-09-18T03:21:04;16.27;;;14.52;;
58260;SDS011;44058;52.898;6.502;2023-09-18T03:23:30;15.32;;;13.82;;
58260;SDS011;44058;52.898;6.502;2023-09-18T03:25:56;15.40;;;13.80;;
58260;SDS011;44058;52.898;6.502;2023-09-18T03:28:24;15.95;;;14.45;;
58260;SDS011;44058;52.898;6.502;2023-09-18T03:30:50;15.55;;;14.02;;
58260;SDS011;44058;52.898;6.502;2023-09-18T03:33:16;19.13;;;13.98;;
58260;SDS011;44058;52.898;6.502;2023-09-18T03:35:46;15.50;;;13.73;;
58260;SDS011;44058;52.898;6.502;2023-09-18T03:38:13;14.77;;;12.38;;
58260;SDS011;44058;52.898;6.502;2023-09-18T03:40:39;16.10;;;13.45;;
58260;SDS011;44058;52.898;6.502;2023-09-18T03:43:06;15.23;;;13.60;;
58260;SDS011;44058;52.898;6.502;2023-09-18T03:45:33;15.18;;;12.48;;
58260;SDS011;44058;52.898;6.502;2023-09-18T03:47:59;14.85;;;13.35;;
58260;SDS011;44058;52.898;6.502;2023-09-18T03:50:26;11.85;;;10.70;;
58260;SDS011;44058;52.898;6.502;2023-09-18T03:52:52;15.10;;;13.20;;
58260;SDS011;44058;52.898;6.502;2023-09-18T03:55:18;13.05;;;11.68;;
58260;SDS011;44058;52.898;6.502;2023-09-18T03:58:04;13.80;;;12.27;;
58260;SDS011;44058;52.898;6.502;2023-09-18T04:00:31;11.15;;;10.07;;
58260;SDS011;44058;52.898;6.502;2023-09-18T04:02:57;12.88;;;11.48;;
58260;SDS011;44058;52.898;6.502;2023-09-18T04:05:43;14.23;;;12.13;;
58260;SDS011;44058;52.898;6.502;2023-09-18T04:08:11;13.95;;;11.57;;
58260;SDS011;44058;52.898;6.502;2023-09-18T04:10:38;14.10;;;12.70;;
58260;SDS011;44058;52.898;6.502;2023-09-18T04:13:04;17.20;;;12.63;;
58260;SDS011;44058;52.898;6.502;2023-09-18T04:15:30;13.52;;;11.93;;
58260;SDS011;44058;52.898;6.502;2023-09-18T04:17:56;14.68;;;12.10;;
58260;SDS011;44058;52.898;6.502;2023-09-18T04:20:22;13.65;;;12.25;;
58260;SDS011;44058;52.898;6.502;2023-09-18T04:23:16;16.25;;;12.70;;
58260;SDS011;44058;52.898;6.502;2023-09-18T04:25:35;13.48;;;12.18;;
58260;SDS011;44058;52.898;6.502;2023-09-18T04:28:01;13.63;;;12.23;;
58260;SDS011;44058;52.898;6.502;2023-09-18T04:30:27;13.43;;;12.13;;
58260;SDS011;44058;52.898;6.502;2023-09-18T04:32:53;13.27;;;11.68;;
58260;SDS011;44058;52.898;6.502;2023-09-18T04:35:19;13.45;;;12.05;;
58260;SDS011;44058;52.898;6.502;2023-09-18T04:37:45;14.02;;;12.07;;
58260;SDS011;44058;52.898;6.502;2023-09-18T04:40:11;14.10;;;12.32;;
58260;SDS011;44058;52.898;6.502;2023-09-18T04:42:38;13.07;;;11.63;;
58260;SDS011;44058;52.898;6.502;2023-09-18T04:45:05;13.82;;;11.80;;
58260;SDS011;44058;52.898;6.502;2023-09-18T04:47:32;12.32;;;10.98;;
58260;SDS011;44058;52.898;6.502;2023-09-18T04:49:58;13.35;;;10.32;;
58260;SDS011;44058;52.898;6.502;2023-09-18T04:52:24;11.93;;;10.73;;
58260;SDS011;44058;52.898;6.502;2023-09-18T04:54:50;11.77;;;10.57;;
58260;SDS011;44058;52.898;6.502;2023-09-18T04:57:16;11.18;;;10.00;;
58260;SDS011;44058;52.898;6.502;2023-09-18T04:59:42;11.90;;;10.25;;
58260;SDS011;44058;52.898;6.502;2023-09-18T05:02:08;12.05;;;10.38;;
58260;SDS011;44058;52.898;6.502;2023-09-18T05:04:35;13.73;;;11.13;;
58260;SDS011;44058;52.898;6.502;2023-09-18T05:07:01;12.65;;;10.30;;
58260;SDS011;44058;52.898;6.502;2023-09-18T05:09:27;11.38;;;10.13;;
58260;SDS011;44058;52.898;6.502;2023-09-18T05:11:53;10.63;;;9.52;;
58260;SDS011;44058;52.898;6.502;2023-09-18T05:14:19;12.68;;;10.07;;
58260;SDS011;44058;52.898;6.502;2023-09-18T05:16:45;12.40;;;9.77;;
58260;SDS011;44058;52.898;6.502;2023-09-18T05:19:11;15.75;;;10.57;;
58260;SDS011;44058;52.898;6.502;2023-09-18T05:21:37;11.82;;;10.43;;
58260;SDS011;44058;52.898;6.502;2023-09-18T05:24:04;11.68;;;10.27;;
58260;SDS011;44058;52.898;6.502;2023-09-18T05:26:30;14.25;;;10.98;;
58260;SDS011;44058;52.898;6.502;2023-09-18T05:28:56;12.85;;;10.77;;
58260;SDS011;44058;52.898;6.502;2023-09-18T05:31:23;13.27;;;10.68;;
58260;SDS011;44058;52.898;6.502;2023-09-18T05:33:49;11.75;;;10.43;;
58260;SDS011;44058;52.898;6.502;2023-09-18T05:36:16;13.70;;;10.23;;
58260;SDS011;44058;52.898;6.502;2023-09-18T05:38:42;13.38;;;10.75;;
58260;SDS011;44058;52.898;6.502;2023-09-18T05:41:28;11.45;;;10.20;;
58260;SDS011;44058;52.898;6.502;2023-09-18T05:43:55;11.15;;;10.00;;
58260;SDS011;44058;52.898;6.502;2023-09-18T05:46:22;13.18;;;10.77;;
58260;SDS011;44058;52.898;6.502;2023-09-18T05:48:48;12.77;;;9.93;;
58260;SDS011;44058;52.898;6.502;2023-09-18T05:51:14;11.85;;;10.63;;
58260;SDS011;44058;52.898;6.502;2023-09-18T05:53:41;12.00;;;10.20;;
58260;SDS011;44058;52.898;6.502;2023-09-18T05:56:07;12.75;;;10.23;;
58260;SDS011;44058;52.898;6.502;2023-09-18T05:58:34;11.95;;;10.07;;
58260;SDS011;44058;52.898;6.502;2023-09-18T06:01:01;10.27;;;9.27;;
58260;SDS011;44058;52.898;6.502;2023-09-18T06:03:27;11.02;;;8.98;;
58260;SDS011;44058;52.898;6.502;2023-09-18T06:05:55;14.57;;;9.63;;
58260;SDS011;44058;52.898;6.502;2023-09-18T06:08:21;10.30;;;9.20;;
58260;SDS011;44058;52.898;6.502;2023-09-18T06:10:51;12.13;;;10.35;;
58260;SDS011;44058;52.898;6.502;2023-09-18T06:13:17;12.75;;;9.75;;
58260;SDS011;44058;52.898;6.502;2023-09-18T06:15:43;11.15;;;9.30;;
58260;SDS011;44058;52.898;6.502;2023-09-18T06:18:09;14.02;;;9.13;;
58260;SDS011;44058;52.898;6.502;2023-09-18T06:20:35;10.88;;;9.55;;
58260;SDS011;44058;52.898;6.502;2023-09-18T06:23:02;14.43;;;9.48;;
58260;SDS011;44058;52.898;6.502;2023-09-18T06:25:29;11.48;;;9.98;;
58260;SDS011;44058;52.898;6.502;2023-09-18T06:27:56;13.25;;;9.93;;
58260;SDS011;44058;52.898;6.502;2023-09-18T06:30:23;14.05;;;9.90;;
58260;SDS011;44058;52.898;6.502;2023-09-18T06:32:49;12.18;;;10.20;;
58260;SDS011;44058;52.898;6.502;2023-09-18T06:35:15;11.48;;;9.32;;
58260;SDS011;44058;52.898;6.502;2023-09-18T06:37:41;11.20;;;9.30;;
58260;SDS011;44058;52.898;6.502;2023-09-18T06:40:28;12.25;;;9.98;;
58260;SDS011;44058;52.898;6.502;2023-09-18T06:43:14;11.48;;;9.50;;
58260;SDS011;44058;52.898;6.502;2023-09-18T06:45:40;12.52;;;10.15;;
58260;SDS011;44058;52.898;6.502;2023-09-18T06:48:06;13.10;;;10.02;;
58260;SDS011;44058;52.898;6.502;2023-09-18T06:50:33;13.55;;;10.82;;
58260;SDS011;44058;52.898;6.502;2023-09-18T06:52:59;11.05;;;9.60;;
58260;SDS011;44058;52.898;6.502;2023-09-18T06:55:25;13.55;;;10.63;;
58260;SDS011;44058;52.898;6.502;2023-09-18T06:57:51;14.00;;;10.82;;
58260;SDS011;44058;52.898;6.502;2023-09-18T07:00:18;13.35;;;11.63;;
58260;SDS011;44058;52.898;6.502;2023-09-18T07:02:46;14.23;;;11.38;;
58260;SDS011;44058;52.898;6.502;2023-09-18T07:05:12;18.20;;;12.20;;
58260;SDS011;44058;52.898;6.502;2023-09-18T07:07:38;16.58;;;13.52;;
58260;SDS011;44058;52.898;6.502;2023-09-18T07:10:04;21.23;;;15.82;;
58260;SDS011;44058;52.898;6.502;2023-09-18T07:12:31;17.73;;;14.25;;
58260;SDS011;44058;52.898;6.502;2023-09-18T07:14:58;18.77;;;14.15;;
58260;SDS011;44058;52.898;6.502;2023-09-18T07:17:24;20.27;;;13.75;;
58260;SDS011;44058;52.898;6.502;2023-09-18T07:19:50;17.33;;;13.77;;
58260;SDS011;44058;52.898;6.502;2023-09-18T07:22:16;15.75;;;12.48;;
58260;SDS011;44058;52.898;6.502;2023-09-18T07:24:42;11.57;;;10.40;;
58260;SDS011;44058;52.898;6.502;2023-09-18T07:27:10;11.52;;;10.20;;
58260;SDS011;44058;52.898;6.502;2023-09-18T07:29:36;13.57;;;11.50;;
58260;SDS011;44058;52.898;6.502;2023-09-18T07:32:02;14.77;;;11.68;;
58260;SDS011;44058;52.898;6.502;2023-09-18T07:34:29;13.77;;;12.18;;
58260;SDS011;44058;52.898;6.502;2023-09-18T07:36:55;15.70;;;13.20;;
58260;SDS011;44058;52.898;6.502;2023-09-18T07:39:21;15.93;;;13.35;;
58260;SDS011;44058;52.898;6.502;2023-09-18T07:41:47;16.73;;;13.23;;
58260;SDS011;44058;52.898;6.502;2023-09-18T07:44:20;16.27;;;13.20;;
58260;SDS011;44058;52.898;6.502;2023-09-18T07:46:46;15.80;;;12.88;;
58260;SDS011;44058;52.898;6.502;2023-09-18T07:49:12;14.90;;;12.77;;
58260;SDS011;44058;52.898;6.502;2023-09-18T07:51:40;16.75;;;12.77;;
58260;SDS011;44058;52.898;6.502;2023-09-18T07:54:08;15.10;;;12.57;;
58260;SDS011;44058;52.898;6.502;2023-09-18T07:56:35;14.60;;;12.82;;
58260;SDS011;44058;52.898;6.502;2023-09-18T07:59:01;16.75;;;13.05;;
58260;SDS011;44058;52.898;6.502;2023-09-18T08:01:48;14.60;;;13.10;;
58260;SDS011;44058;52.898;6.502;2023-09-18T08:04:14;15.93;;;13.13;;
58260;SDS011;44058;52.898;6.502;2023-09-18T08:06:40;18.27;;;14.13;;
58260;SDS011;44058;52.898;6.502;2023-09-18T08:09:06;15.15;;;13.48;;
58260;SDS011;44058;52.898;6.502;2023-09-18T08:11:35;16.15;;;13.48;;
58260;SDS011;44058;52.898;6.502;2023-09-18T08:14:06;16.90;;;12.88;;
58260;SDS011;44058;52.898;6.502;2023-09-18T08:16:33;16.75;;;13.18;;
58260;SDS011;44058;52.898;6.502;2023-09-18T08:19:00;18.00;;;14.30;;
58260;SDS011;44058;52.898;6.502;2023-09-18T08:21:26;17.13;;;13.15;;
58260;SDS011;44058;52.898;6.502;2023-09-18T08:23:56;16.20;;;13.70;;
58260;SDS011;44058;52.898;6.502;2023-09-18T08:26:23;17.27;;;12.55;;
58260;SDS011;44058;52.898;6.502;2023-09-18T08:28:50;16.60;;;12.57;;
58260;SDS011;44058;52.898;6.502;2023-09-18T08:31:16;15.30;;;13.10;;
58260;SDS011;44058;52.898;6.502;2023-09-18T08:33:42;18.15;;;12.75;;
58260;SDS011;44058;52.898;6.502;2023-09-18T08:36:09;15.48;;;13.48;;
58260;SDS011;44058;52.898;6.502;2023-09-18T08:38:35;16.65;;;14.68;;
58260;SDS011;44058;52.898;6.502;2023-09-18T08:41:01;14.40;;;12.90;;
58260;SDS011;44058;52.898;6.502;2023-09-18T08:43:28;14.63;;;12.67;;
58260;SDS011;44058;52.898;6.502;2023-09-18T08:45:55;16.40;;;13.40;;
58260;SDS011;44058;52.898;6.502;2023-09-18T08:48:26;16.50;;;13.85;;
58260;SDS011;44058;52.898;6.502;2023-09-18T08:50:59;17.83;;;13.73;;
58260;SDS011;44058;52.898;6.502;2023-09-18T08:53:26;17.70;;;12.55;;
58260;SDS011;44058;52.898;6.502;2023-09-18T08:55:53;16.05;;;12.65;;
58260;SDS011;44058;52.898;6.502;2023-09-18T08:58:23;14.23;;;12.63;;
58260;SDS011;44058;52.898;6.502;2023-09-18T09:00:50;15.60;;;12.57;;
58260;SDS011;44058;52.898;6.502;2023-09-18T09:03:16;14.35;;;12.52;;
58260;SDS011;44058;52.898;6.502;2023-09-18T09:05:42;17.77;;;13.55;;
58260;SDS011;44058;52.898;6.502;2023-09-18T09:08:08;15.05;;;13.13;;
58260;SDS011;44058;52.898;6.502;2023-09-18T09:10:34;17.63;;;13.82;;
58260;SDS011;44058;52.898;6.502;2023-09-18T09:13:00;15.88;;;14.13;;
58260;SDS011;44058;52.898;6.502;2023-09-18T09:15:28;19.38;;;14.27;;
58260;SDS011;44058;52.898;6.502;2023-09-18T09:18:02;19.73;;;13.73;;
58260;SDS011;44058;52.898;6.502;2023-09-18T09:20:29;19.50;;;14.20;;
58260;SDS011;44058;52.898;6.502;2023-09-18T09:22:59;16.02;;;14.35;;
58260;SDS011;44058;52.898;6.502;2023-09-18T09:25:26;20.90;;;14.70;;
58260;SDS011;44058;52.898;6.502;2023-09-18T09:27:54;18.48;;;14.90;;
58260;SDS011;44058;52.898;6.502;2023-09-18T09:30:21;16.25;;;14.13;;
58260;SDS011;44058;52.898;6.502;2023-09-18T09:32:47;20.50;;;14.85;;
58260;SDS011;44058;52.898;6.502;2023-09-18T09:37:52;15.98;;;14.27;;
58260;SDS011;44058;52.898;6.502;2023-09-18T09:40:20;16.50;;;14.73;;
58260;SDS011;44058;52.898;6.502;2023-09-18T09:42:47;16.92;;;15.18;;
58260;SDS011;44058;52.898;6.502;2023-09-18T09:45:14;16.23;;;14.55;;
58260;SDS011;44058;52.898;6.502;2023-09-18T09:47:43;15.20;;;13.52;;
58260;SDS011;44058;52.898;6.502;2023-09-18T09:50:11;15.40;;;13.60;;
58260;SDS011;44058;52.898;6.502;2023-09-18T09:52:50;16.88;;;13.85;;
58260;SDS011;44058;52.898;6.502;2023-09-18T09:55:20;15.80;;;14.20;;
58260;SDS011;44058;52.898;6.502;2023-09-18T09:57:46;18.05;;;13.30;;
58260;SDS011;44058;52.898;6.502;2023-09-18T10:00:13;14.75;;;12.48;;
58260;SDS011;44058;52.898;6.502;2023-09-18T10:03:02;14.80;;;13.30;;
58260;SDS011;44058;52.898;6.502;2023-09-18T10:05:33;15.48;;;12.02;;
58260;SDS011;44058;52.898;6.502;2023-09-18T10:08:02;13.32;;;11.63;;
58260;SDS011;44058;52.898;6.502;2023-09-18T10:10:30;12.90;;;11.60;;
58260;SDS011;44058;52.898;6.502;2023-09-18T10:13:00;11.75;;;10.52;;
58260;SDS011;44058;52.898;6.502;2023-09-18T10:15:27;10.65;;;9.52;;
58260;SDS011;44058;52.898;6.502;2023-09-18T10:17:56;11.20;;;10.10;;
58260;SDS011;44058;52.898;6.502;2023-09-18T10:20:24;10.55;;;9.60;;
58260;SDS011;44058;52.898;6.502;2023-09-18T10:22:54;12.88;;;10.30;;
58260;SDS011;44058;52.898;6.502;2023-09-18T10:25:25;10.65;;;9.55;;
58260;SDS011;44058;52.898;6.502;2023-09-18T10:27:53;10.32;;;9.30;;
58260;SDS011;44058;52.898;6.502;2023-09-18T10:30:29;10.93;;;8.98;;
58260;SDS011;44058;52.898;6.502;2023-09-18T10:32:55;9.18;;;8.25;;
58260;SDS011;44058;52.898;6.502;2023-09-18T10:35:24;9.98;;;8.55;;
58260;SDS011;44058;52.898;6.502;2023-09-18T10:37:50;9.45;;;8.43;;
58260;SDS011;44058;52.898;6.502;2023-09-18T10:40:18;9.98;;;7.70;;
58260;SDS011;44058;52.898;6.502;2023-09-18T10:42:46;9.45;;;7.72;;
58260;SDS011;44058;52.898;6.502;2023-09-18T10:45:13;9.25;;;7.20;;
58260;SDS011;44058;52.898;6.502;2023-09-18T10:47:42;7.60;;;6.57;;
58260;SDS011;44058;52.898;6.502;2023-09-18T10:50:10;6.85;;;6.05;;
58260;SDS011;44058;52.898;6.502;2023-09-18T10:52:38;6.50;;;5.78;;
58260;SDS011;44058;52.898;6.502;2023-09-18T10:55:11;6.13;;;5.25;;
58260;SDS011;44058;52.898;6.502;2023-09-18T10:57:49;5.97;;;5.38;;
58260;SDS011;44058;52.898;6.502;2023-09-18T11:00:16;6.15;;;5.57;;
58260;SDS011;44058;52.898;6.502;2023-09-18T11:02:45;6.05;;;5.05;;
58260;SDS011;44058;52.898;6.502;2023-09-18T11:05:11;6.68;;;5.35;;
58260;SDS011;44058;52.898;6.502;2023-09-18T11:07:37;6.90;;;5.55;;
58260;SDS011;44058;52.898;6.502;2023-09-18T11:12:49;5.40;;;4.93;;
58260;SDS011;44058;52.898;6.502;2023-09-18T11:15:30;6.15;;;5.65;;
58260;SDS011;44058;52.898;6.502;2023-09-18T11:18:01;5.18;;;4.65;;
58260;SDS011;44058;52.898;6.502;2023-09-18T11:20:30;5.80;;;5.30;;
58260;SDS011;44058;52.898;6.502;2023-09-18T11:25:41;6.03;;;5.53;;
58260;SDS011;44058;52.898;6.502;2023-09-18T11:28:29;5.97;;;5.10;;
58260;SDS011;44058;52.898;6.502;2023-09-18T11:30:57;5.65;;;5.03;;
58260;SDS011;44058;52.898;6.502;2023-09-18T11:33:41;5.55;;;4.90;;
58260;SDS011;44058;52.898;6.502;2023-09-18T11:36:12;6.10;;;5.50;;
58260;SDS011;44058;52.898;6.502;2023-09-18T11:38:55;5.80;;;5.13;;
58260;SDS011;44058;52.898;6.502;2023-09-18T11:41:25;7.25;;;6.50;;
58260;SDS011;44058;52.898;6.502;2023-09-18T11:43:52;6.78;;;6.13;;
58260;SDS011;44058;52.898;6.502;2023-09-18T11:46:18;7.85;;;6.35;;
58260;SDS011;44058;52.898;6.502;2023-09-18T11:48:46;6.93;;;6.30;;
58260;SDS011;44058;52.898;6.502;2023-09-18T11:51:19;6.75;;;6.20;;
58260;SDS011;44058;52.898;6.502;2023-09-18T11:53:46;7.13;;;6.43;;
58260;SDS011;44058;52.898;6.502;2023-09-18T11:56:13;7.03;;;6.43;;
58260;SDS011;44058;52.898;6.502;2023-09-18T11:58:46;7.05;;;6.25;;
58260;SDS011;44058;52.898;6.502;2023-09-18T12:01:12;9.30;;;6.63;;
58260;SDS011;44058;52.898;6.502;2023-09-18T12:03:40;7.33;;;6.63;;
58260;SDS011;44058;52.898;6.502;2023-09-18T12:06:06;7.20;;;6.32;;
58260;SDS011;44058;52.898;6.502;2023-09-18T12:08:36;8.20;;;6.72;;
58260;SDS011;44058;52.898;6.502;2023-09-18T12:11:05;7.20;;;6.60;;
58260;SDS011;44058;52.898;6.502;2023-09-18T12:13:32;7.07;;;5.75;;
58260;SDS011;44058;52.898;6.502;2023-09-18T12:16:01;6.00;;;5.40;;
58260;SDS011;44058;52.898;6.502;2023-09-18T12:18:30;5.93;;;5.32;;
58260;SDS011;44058;52.898;6.502;2023-09-18T12:20:57;6.60;;;4.90;;
58260;SDS011;44058;52.898;6.502;2023-09-18T12:23:24;5.25;;;4.45;;
58260;SDS011;44058;52.898;6.502;2023-09-18T12:25:51;6.50;;;4.82;;
58260;SDS011;44058;52.898;6.502;2023-09-18T12:28:22;5.43;;;4.85;;
58260;SDS011;44058;52.898;6.502;2023-09-18T12:31:14;6.13;;;4.78;;
58260;SDS011;44058;52.898;6.502;2023-09-18T12:34:01;5.93;;;4.43;;
58260;SDS011;44058;52.898;6.502;2023-09-18T12:36:27;5.05;;;4.55;;
58260;SDS011;44058;52.898;6.502;2023-09-18T12:38:58;5.50;;;4.80;;
58260;SDS011;44058;52.898;6.502;2023-09-18T12:41:25;5.47;;;4.45;;
58260;SDS011;44058;52.898;6.502;2023-09-18T12:43:52;4.85;;;4.20;;
58260;SDS011;44058;52.898;6.502;2023-09-18T12:46:19;5.15;;;4.57;;
58260;SDS011;44058;52.898;6.502;2023-09-18T12:48:47;5.93;;;4.93;;
58260;SDS011;44058;52.898;6.502;2023-09-18T12:51:13;5.03;;;4.63;;
58260;SDS011;44058;52.898;6.502;2023-09-18T12:53:41;7.25;;;5.10;;
58260;SDS011;44058;52.898;6.502;2023-09-18T12:56:14;5.72;;;5.03;;
58260;SDS011;44058;52.898;6.502;2023-09-18T12:58:40;4.97;;;4.43;;
58260;SDS011;44058;52.898;6.502;2023-09-18T13:01:09;4.47;;;4.10;;
58260;SDS011;44058;52.898;6.502;2023-09-18T13:03:46;7.13;;;4.70;;
58260;SDS011;44058;52.898;6.502;2023-09-18T13:06:15;5.57;;;4.65;;
58260;SDS011;44058;52.898;6.502;2023-09-18T13:08:45;4.85;;;4.40;;
58260;SDS011;44058;52.898;6.502;2023-09-18T13:11:11;4.82;;;4.43;;
58260;SDS011;44058;52.898;6.502;2023-09-18T13:13:40;6.38;;;4.50;;
58260;SDS011;44058;52.898;6.502;2023-09-18T13:16:08;7.25;;;4.20;;
58260;SDS011;44058;52.898;6.502;2023-09-18T13:18:35;4.97;;;4.28;;
58260;SDS011;44058;52.898;6.502;2023-09-18T13:21:11;8.18;;;4.70;;
58260;SDS011;44058;52.898;6.502;2023-09-18T13:23:57;5.95;;;4.15;;
58260;SDS011;44058;52.898;6.502;2023-09-18T13:26:24;5.82;;;3.83;;
58260;SDS011;44058;52.898;6.502;2023-09-18T13:28:50;5.00;;;4.43;;
58260;SDS011;44058;52.898;6.502;2023-09-18T13:31:16;7.38;;;4.50;;
58260;SDS011;44058;52.898;6.502;2023-09-18T13:33:44;5.00;;;3.58;;
58260;SDS011;44058;52.898;6.502;2023-09-18T13:36:10;5.60;;;3.55;;
58260;SDS011;44058;52.898;6.502;2023-09-18T13:38:36;4.57;;;3.55;;
58260;SDS011;44058;52.898;6.502;2023-09-18T13:41:02;4.35;;;3.95;;
58260;SDS011;44058;52.898;6.502;2023-09-18T13:43:30;3.75;;;3.45;;
58260;SDS011;44058;52.898;6.502;2023-09-18T13:45:59;4.88;;;3.70;;
58260;SDS011;44058;52.898;6.502;2023-09-18T13:48:29;5.38;;;3.67;;
58260;SDS011;44058;52.898;6.502;2023-09-18T13:50:55;4.68;;;3.22;;
58260;SDS011;44058;52.898;6.502;2023-09-18T13:53:21;4.10;;;3.22;;
58260;SDS011;44058;52.898;6.502;2023-09-18T13:55:47;5.72;;;3.80;;
58260;SDS011;44058;52.898;6.502;2023-09-18T13:58:14;4.63;;;3.33;;
58260;SDS011;44058;52.898;6.502;2023-09-18T14:00:40;6.65;;;3.70;;
58260;SDS011;44058;52.898;6.502;2023-09-18T14:03:08;4.80;;;3.88;;
58260;SDS011;44058;52.898;6.502;2023-09-18T14:05:35;4.65;;;3.72;;
58260;SDS011;44058;52.898;6.502;2023-09-18T14:08:01;4.72;;;3.75;;
58260;SDS011;44058;52.898;6.502;2023-09-18T14:10:29;5.40;;;4.20;;
58260;SDS011;44058;52.898;6.502;2023-09-18T14:12:58;6.70;;;4.20;;
58260;SDS011;44058;52.898;6.502;2023-09-18T14:15:24;4.88;;;4.38;;
58260;SDS011;44058;52.898;6.502;2023-09-18T14:17:50;5.50;;;4.50;;
58260;SDS011;44058;52.898;6.502;2023-09-18T14:20:16;6.95;;;4.18;;
58260;SDS011;44058;52.898;6.502;2023-09-18T14:22:44;4.43;;;4.03;;
58260;SDS011;44058;52.898;6.502;2023-09-18T14:25:10;3.95;;;3.63;;
58260;SDS011;44058;52.898;6.502;2023-09-18T14:27:56;4.85;;;3.13;;
58260;SDS011;44058;52.898;6.502;2023-09-18T14:30:22;4.43;;;3.33;;
58260;SDS011;44058;52.898;6.502;2023-09-18T14:32:54;5.68;;;3.30;;
58260;SDS011;44058;52.898;6.502;2023-09-18T14:35:20;6.03;;;3.05;;
58260;SDS011;44058;52.898;6.502;2023-09-18T14:37:48;5.13;;;3.20;;
58260;SDS011;44058;52.898;6.502;2023-09-18T14:40:14;4.05;;;3.08;;
58260;SDS011;44058;52.898;6.502;2023-09-18T14:42:41;3.72;;;2.70;;
58260;SDS011;44058;52.898;6.502;2023-09-18T14:45:07;3.00;;;2.70;;